createdAt,value
2023-04-12T00:00:12.272Z,25.50
2023-04-12T00:02:40.586Z,25.50
2023-04-12T00:05:09.807Z,25.50
2023-04-12T00:07:38.395Z,25.50
2023-04-12T00:10:08.003Z,25.40
2023-04-12T00:12:35.730Z,25.40
2023-04-12T00:15:03.760Z,25.40
2023-04-12T00:17:33.420Z,25.40
2023-04-12T00:20:01.074Z,25.40
2023-04-12T00:22:29.911Z,25.40
2023-04-12T00:24:57.598Z,25.40
2023-04-12T00:27:25.771Z,25.40
2023-04-12T00:29:53.448Z,25.40
2023-04-12T00:32:21.100Z,25.40
2023-04-12T00:34:50.127Z,25.40
2023-04-12T00:37:17.754Z,25.40
2023-04-12T00:39:45.663Z,25.40
2023-04-12T00:42:13.969Z,25.30
2023-04-12T00:44:41.620Z,25.30
2023-04-12T00:47:09.364Z,25.30
2023-04-12T00:49:37.083Z,25.30
2023-04-12T00:52:10.097Z,25.30
2023-04-12T00:54:38.433Z,25.30
2023-04-12T00:57:06.278Z,25.30
2023-04-12T00:59:33.942Z,25.30
2023-04-12T01:02:02.275Z,25.30
2023-04-12T01:04:30.069Z,25.30
2023-04-12T01:07:15.791Z,25.30
2023-04-12T01:09:52.257Z,25.30
2023-04-12T01:12:28.456Z,25.30
2023-04-12T01:15:03.482Z,25.30
2023-04-12T01:17:37.877Z,25.30
2023-04-12T01:20:14.271Z,25.30
2023-04-12T01:23:03.671Z,25.20
2023-04-12T01:25:46.707Z,25.20
2023-04-12T01:28:21.120Z,25.20
2023-04-12T01:30:50.940Z,25.20
2023-04-12T01:33:19.380Z,25.20
2023-04-12T01:35:49.829Z,25.20
2023-04-12T01:38:17.631Z,25.20
2023-04-12T01:40:45.319Z,25.20
2023-04-12T01:43:15.927Z,25.20
2023-04-12T01:45:43.769Z,25.20
2023-04-12T01:48:12.978Z,25.20
2023-04-12T01:50:44.630Z,25.10
2023-04-12T01:53:15.041Z,25.10
2023-04-12T01:55:46.685Z,25.10
2023-04-12T01:58:18.351Z,25.10
2023-04-12T02:00:46.913Z,25.10
2023-04-12T02:03:14.906Z,25.10
2023-04-12T02:05:43.141Z,25.10
2023-04-12T02:08:11.036Z,25.10
2023-04-12T02:10:40.425Z,25.10
2023-04-12T02:13:08.076Z,25.10
2023-04-12T02:15:38.528Z,25.10
2023-04-12T02:18:06.840Z,25.10
2023-04-12T02:20:35.569Z,25.10
2023-04-12T02:23:03.200Z,25.10
2023-04-12T02:25:30.981Z,25.10
2023-04-12T02:27:58.649Z,25.00
2023-04-12T02:30:26.290Z,25.10
2023-04-12T02:32:56.256Z,25.00
2023-04-12T02:35:24.856Z,25.00
2023-04-12T02:37:52.498Z,25.00
2023-04-12T02:40:20.119Z,25.00
2023-04-12T02:42:47.752Z,25.00
2023-04-12T02:45:15.376Z,25.00
2023-04-12T02:47:43.428Z,25.00
2023-04-12T02:50:12.495Z,25.00
2023-04-12T02:52:40.126Z,25.00
2023-04-12T02:55:09.144Z,25.00
2023-04-12T02:57:36.900Z,25.00
2023-04-12T03:00:12.240Z,25.00
2023-04-12T03:02:41.204Z,25.00
2023-04-12T03:05:09.478Z,25.00
2023-04-12T03:07:38.634Z,25.00
2023-04-12T03:10:07.599Z,24.90
2023-04-12T03:12:35.382Z,25.00
2023-04-12T03:15:02.988Z,24.90
2023-04-12T03:17:31.111Z,24.90
2023-04-12T03:20:06.239Z,24.90
2023-04-12T03:22:33.867Z,24.90
2023-04-12T03:25:02.899Z,24.90
2023-04-12T03:27:30.552Z,24.90
2023-04-12T03:29:58.180Z,24.90
2023-04-12T03:32:26.032Z,24.90
2023-04-12T03:34:53.714Z,24.90
2023-04-12T03:37:21.446Z,24.90
2023-04-12T03:39:49.173Z,24.90
2023-04-12T03:42:31.600Z,24.90
2023-04-12T03:44:59.763Z,24.90
2023-04-12T03:47:27.469Z,24.90
2023-04-12T03:50:09.631Z,24.90
2023-04-12T03:52:39.504Z,24.90
2023-04-12T03:55:08.369Z,24.90
2023-04-12T03:57:37.833Z,24.90
2023-04-12T04:00:08.552Z,24.90
2023-04-12T04:02:36.844Z,24.90
2023-04-12T04:05:05.114Z,24.90
2023-04-12T04:07:33.036Z,24.90
2023-04-12T04:10:01.073Z,24.90
2023-04-12T04:12:28.861Z,24.90
2023-04-12T04:14:58.102Z,24.90
2023-04-12T04:17:25.771Z,24.90
2023-04-12T04:19:53.393Z,24.90
2023-04-12T04:22:21.662Z,24.90
2023-04-12T04:24:50.155Z,24.90
2023-04-12T04:27:17.793Z,24.90
2023-04-12T04:29:45.605Z,24.90
2023-04-12T04:32:15.789Z,24.90
2023-04-12T04:34:43.517Z,24.90
2023-04-12T04:37:12.464Z,24.90
2023-04-12T04:39:40.120Z,24.90
2023-04-12T04:42:07.816Z,24.90
2023-04-12T04:44:37.250Z,24.90
2023-04-12T04:47:06.850Z,24.90
2023-04-12T04:49:36.978Z,24.90
2023-04-12T04:52:05.021Z,25.00
2023-04-12T04:54:33.172Z,25.00
2023-04-12T04:57:01.671Z,25.00
2023-04-12T04:59:29.465Z,25.00
2023-04-12T05:01:57.095Z,25.00
2023-04-12T05:04:24.812Z,25.00
2023-04-12T05:06:54.032Z,25.00
2023-04-12T05:09:21.746Z,25.00
2023-04-12T05:11:49.385Z,25.00
2023-04-12T05:14:17.029Z,25.00
2023-04-12T05:16:44.674Z,25.00
2023-04-12T05:19:12.368Z,25.00
2023-04-12T05:21:40.074Z,25.00
2023-04-12T05:24:09.743Z,25.00
2023-04-12T05:26:37.412Z,25.00
2023-04-12T05:29:06.222Z,25.10
2023-04-12T05:31:33.948Z,25.10
2023-04-12T05:34:01.621Z,25.10
2023-04-12T05:36:29.247Z,25.10
2023-04-12T05:38:57.421Z,25.10
2023-04-12T05:41:27.089Z,25.10
2023-04-12T05:43:54.788Z,25.10
2023-04-12T05:46:22.777Z,25.10
2023-04-12T05:48:50.586Z,25.10
2023-04-12T05:51:22.880Z,25.20
2023-04-12T05:53:55.620Z,25.10
2023-04-12T05:56:23.331Z,25.20
2023-04-12T05:58:52.346Z,25.20
2023-04-12T06:01:22.729Z,25.20
2023-04-12T06:03:51.266Z,25.20
2023-04-12T06:06:20.713Z,25.20
2023-04-12T06:08:50.930Z,25.20
2023-04-12T06:11:18.663Z,25.20
2023-04-12T06:13:46.375Z,25.20
2023-04-12T06:16:15.697Z,25.20
2023-04-12T06:18:43.570Z,25.30
2023-04-12T06:21:11.318Z,25.30
2023-04-12T06:23:38.967Z,25.30
2023-04-12T06:26:07.294Z,25.30
2023-04-12T06:28:34.945Z,25.30
2023-04-12T06:31:02.704Z,25.30
2023-04-12T06:33:31.747Z,25.30
2023-04-12T06:36:00.470Z,25.30
2023-04-12T06:38:28.207Z,25.30
2023-04-12T06:40:55.939Z,25.40
2023-04-12T06:43:23.592Z,25.40
2023-04-12T06:45:51.258Z,25.40
2023-04-12T06:48:19.056Z,25.40
2023-04-12T06:50:48.140Z,25.40
2023-04-12T06:53:15.835Z,25.40
2023-04-12T06:55:43.539Z,25.40
2023-04-12T06:58:11.431Z,25.40
2023-04-12T07:00:39.160Z,25.40
2023-04-12T07:03:06.940Z,25.50
2023-04-12T07:05:34.603Z,25.50
2023-04-12T07:08:03.594Z,25.50
2023-04-12T07:10:31.275Z,25.50
2023-04-12T07:13:03.519Z,25.50
2023-04-12T07:15:31.150Z,25.50
2023-04-12T07:17:58.802Z,25.50
2023-04-12T07:20:26.465Z,25.50
2023-04-12T07:22:54.095Z,25.60
2023-04-12T07:25:23.084Z,25.60
2023-04-12T07:27:51.784Z,25.60
2023-04-12T07:30:19.863Z,25.60
2023-04-12T07:32:47.626Z,25.60
2023-04-12T07:35:15.663Z,25.60
2023-04-12T07:37:43.369Z,25.70
2023-04-12T07:40:11.243Z,25.70
2023-04-12T07:42:40.245Z,25.70
2023-04-12T07:45:08.850Z,25.70
2023-04-12T07:47:36.493Z,25.70
2023-04-12T07:50:04.391Z,25.80
2023-04-12T07:52:33.566Z,25.80
2023-04-12T07:55:01.281Z,25.80
2023-04-12T07:57:28.931Z,25.80
2023-04-12T07:59:57.990Z,25.90
2023-04-12T08:02:26.197Z,25.90
2023-04-12T08:04:54.456Z,25.90
2023-04-12T08:07:22.370Z,25.90
2023-04-12T08:09:51.010Z,25.90
2023-04-12T08:12:18.653Z,25.90
2023-04-12T08:14:46.371Z,26.00
2023-04-12T08:17:15.426Z,26.00
2023-04-12T08:19:43.175Z,26.00
2023-04-12T08:22:13.560Z,26.00
2023-04-12T08:24:41.394Z,26.00
2023-04-12T08:27:09.151Z,26.10
2023-04-12T08:29:36.809Z,26.10
2023-04-12T08:32:05.220Z,26.10
2023-04-12T08:34:34.495Z,26.10
2023-04-12T08:37:02.213Z,26.10
2023-04-12T08:39:29.842Z,26.10
2023-04-12T08:41:58.235Z,26.20
2023-04-12T08:44:36.954Z,26.20
2023-04-12T08:47:06.087Z,26.20
2023-04-12T08:49:35.727Z,26.20
2023-04-12T08:52:06.708Z,26.20
2023-04-12T08:54:34.834Z,26.20
2023-04-12T08:57:04.923Z,26.20
2023-04-12T08:59:33.326Z,26.20
2023-04-12T09:02:02.692Z,26.20
2023-04-12T09:04:30.590Z,26.20
2023-04-12T09:06:59.813Z,26.20
2023-04-12T09:09:43.390Z,26.20
2023-04-12T09:12:11.707Z,26.20
2023-04-12T09:14:40.154Z,26.20
2023-04-12T09:17:23.046Z,26.20
2023-04-12T09:19:51.104Z,26.20
2023-04-12T09:22:20.202Z,26.20
2023-04-12T09:24:49.678Z,26.20
2023-04-12T09:27:20.873Z,26.20
2023-04-12T09:29:51.551Z,26.20
2023-04-12T09:32:27.291Z,26.20
2023-04-12T09:35:01.229Z,26.20
2023-04-12T09:37:30.249Z,26.20
2023-04-12T09:40:01.444Z,26.20
2023-04-12T09:42:33.825Z,26.20
2023-04-12T09:45:19.250Z,26.20
2023-04-12T09:47:47.293Z,26.20
2023-04-12T09:50:21.933Z,26.20
2023-04-12T09:52:51.835Z,26.20
2023-04-12T09:55:21.502Z,26.20
2023-04-12T09:57:52.134Z,26.20
2023-04-12T10:00:22.404Z,26.20
2023-04-12T10:02:52.296Z,26.20
2023-04-12T10:05:23.080Z,26.20
2023-04-12T10:07:53.493Z,26.20
2023-04-12T10:10:22.076Z,26.20
2023-04-12T10:12:50.449Z,26.20
2023-04-12T10:15:20.786Z,26.10
2023-04-12T10:17:50.438Z,26.10
2023-04-12T10:20:20.081Z,26.10
2023-04-12T10:22:49.356Z,26.10
2023-04-12T10:25:20.010Z,26.10
2023-04-12T10:27:48.676Z,26.10
2023-04-12T10:30:27.139Z,26.10
2023-04-12T10:33:26.532Z,26.10
2023-04-12T10:36:00.808Z,26.10
2023-04-12T10:38:35.240Z,26.20
2023-04-12T10:41:15.194Z,26.10
2023-04-12T10:43:44.058Z,26.20
2023-04-12T10:46:51.415Z,26.20
2023-04-12T10:49:19.693Z,26.20
2023-04-12T10:52:13.190Z,26.20
2023-04-12T10:54:41.085Z,26.20
2023-04-12T10:57:44.184Z,26.30
2023-04-12T11:00:12.878Z,26.30
2023-04-12T11:03:07.644Z,26.30
2023-04-12T11:05:57.649Z,26.30
2023-04-12T11:08:25.892Z,26.40
2023-04-12T11:10:53.724Z,26.40
2023-04-12T11:13:22.805Z,26.40
2023-04-12T11:15:55.586Z,26.40
2023-04-12T11:18:23.879Z,26.40
2023-04-12T11:20:53.442Z,26.40
2023-04-12T11:23:22.028Z,26.40
2023-04-12T11:25:53.958Z,26.40
2023-04-12T11:28:28.658Z,26.40
2023-04-12T11:30:57.262Z,26.40
2023-04-12T11:33:35.551Z,26.40
2023-04-12T11:36:06.449Z,26.40
2023-04-12T11:38:35.648Z,26.40
2023-04-12T11:41:03.815Z,26.30
2023-04-12T11:43:33.106Z,26.40
2023-04-12T11:46:01.467Z,26.30
2023-04-12T11:48:30.531Z,26.30
2023-04-12T11:51:10.324Z,26.30
2023-04-12T11:53:39.957Z,26.30
2023-04-12T11:56:11.162Z,26.30
2023-04-12T11:58:40.249Z,26.30
2023-04-12T12:01:08.169Z,26.40
2023-04-12T12:03:36.135Z,26.40
2023-04-12T12:06:04.842Z,26.40
2023-04-12T12:08:33.151Z,26.40
2023-04-12T12:11:07.914Z,26.40
2023-04-12T12:13:47.706Z,26.40
2023-04-12T12:16:15.541Z,26.40
2023-04-12T12:18:43.991Z,26.40
2023-04-12T12:21:12.686Z,26.40
2023-04-12T12:23:43.044Z,26.40
2023-04-12T12:26:18.914Z,26.40
2023-04-12T12:28:51.267Z,26.40
2023-04-12T12:31:21.142Z,26.40
2023-04-12T12:33:49.006Z,26.40
2023-04-12T12:36:19.676Z,26.40
2023-04-12T12:38:49.154Z,26.50
2023-04-12T12:41:18.562Z,26.50
2023-04-12T12:43:48.402Z,26.50
2023-04-12T12:46:17.595Z,26.50
2023-04-12T12:48:46.512Z,26.50
2023-04-12T12:51:17.692Z,26.50
2023-04-12T12:53:45.404Z,26.50
2023-04-12T12:56:14.046Z,26.50
2023-04-12T12:58:42.898Z,26.50
2023-04-12T13:01:11.926Z,26.50
2023-04-12T13:03:39.767Z,26.50
2023-04-12T13:06:08.556Z,26.60
2023-04-12T13:08:37.207Z,26.60
2023-04-12T13:11:05.200Z,26.60
2023-04-12T13:13:33.240Z,26.60
2023-04-12T13:16:00.937Z,26.60
2023-04-12T13:18:29.967Z,26.60
2023-04-12T13:21:00.845Z,26.60
2023-04-12T13:23:28.649Z,26.60
2023-04-12T13:25:56.844Z,26.60
2023-04-12T13:28:24.592Z,26.60
2023-04-12T13:30:52.267Z,26.60
2023-04-12T13:33:22.199Z,26.60
2023-04-12T13:35:51.778Z,26.60
2023-04-12T13:38:19.469Z,26.60
2023-04-12T13:40:47.091Z,26.60
2023-04-12T13:43:14.778Z,26.60
2023-04-12T13:45:42.499Z,26.60
2023-04-12T13:48:10.331Z,26.60
2023-04-12T13:50:38.101Z,26.60
2023-04-12T13:53:07.092Z,26.70
2023-04-12T13:55:34.732Z,26.70
2023-04-12T13:58:02.434Z,26.70
2023-04-12T14:00:30.062Z,26.70
2023-04-12T14:02:57.981Z,26.70
2023-04-12T14:05:25.649Z,26.70
2023-04-12T14:07:53.611Z,26.80
2023-04-12T14:10:22.681Z,26.80
2023-04-12T14:12:50.387Z,26.80
2023-04-12T14:15:18.038Z,26.80
2023-04-12T14:17:46.263Z,26.80
2023-04-12T14:20:16.013Z,26.80
2023-04-12T14:22:44.954Z,26.80
2023-04-12T14:25:12.800Z,26.80
2023-04-12T14:27:41.827Z,26.90
2023-04-12T14:30:10.180Z,26.90
2023-04-12T14:32:37.841Z,26.90
2023-04-12T14:35:06.159Z,26.90
2023-04-12T14:37:33.938Z,26.90
2023-04-12T14:40:01.598Z,26.90
2023-04-12T14:42:29.231Z,26.90
2023-04-12T14:44:58.238Z,26.90
2023-04-12T14:47:25.878Z,26.90
2023-04-12T14:49:53.586Z,26.90
2023-04-12T14:52:21.245Z,27.00
2023-04-12T14:54:48.947Z,27.00
2023-04-12T14:57:17.525Z,27.00
2023-04-12T14:59:45.625Z,27.00
2023-04-12T15:02:14.932Z,27.00
2023-04-12T15:04:42.756Z,27.00
2023-04-12T15:07:10.549Z,27.00
2023-04-12T15:09:38.580Z,27.00
2023-04-12T15:12:06.400Z,27.00
2023-04-12T15:14:34.280Z,27.00
2023-04-12T15:17:01.893Z,27.00
2023-04-12T15:19:32.146Z,27.00
2023-04-12T15:22:00.731Z,27.00
2023-04-12T15:24:30.851Z,27.00
2023-04-12T15:26:58.515Z,27.00
2023-04-12T15:29:27.782Z,27.00
2023-04-12T15:31:56.942Z,27.00
2023-04-12T15:34:25.278Z,27.00
2023-04-12T15:36:54.273Z,27.00
2023-04-12T15:39:22.296Z,27.00
2023-04-12T15:41:49.913Z,27.00
2023-04-12T15:44:17.676Z,27.00
2023-04-12T15:46:59.255Z,27.00
2023-04-12T15:49:35.911Z,27.00
2023-04-12T15:52:05.353Z,27.00
2023-04-12T15:54:33.093Z,27.00
2023-04-12T15:57:02.633Z,27.00
2023-04-12T15:59:30.948Z,27.00
2023-04-12T16:01:58.681Z,27.00
2023-04-12T16:04:27.308Z,26.90
2023-04-12T16:06:55.017Z,26.90
2023-04-12T16:09:25.612Z,26.90
2023-04-12T16:11:53.254Z,26.90
2023-04-12T16:14:20.991Z,26.90
2023-04-12T16:16:48.726Z,26.90
2023-04-12T16:19:16.405Z,26.90
2023-04-12T16:21:44.852Z,26.90
2023-04-12T16:24:13.330Z,26.90
2023-04-12T16:26:42.354Z,26.90
2023-04-12T16:29:13.608Z,26.90
2023-04-12T16:31:41.379Z,26.90
2023-04-12T16:34:09.982Z,26.90
2023-04-12T16:36:38.597Z,26.90
2023-04-12T16:39:06.651Z,26.90
2023-04-12T16:41:34.315Z,26.90
2023-04-12T16:44:03.488Z,26.90
2023-04-12T16:46:31.474Z,26.90
2023-04-12T16:48:59.584Z,26.90
2023-04-12T16:51:36.788Z,26.90
2023-04-12T16:54:05.376Z,26.80
2023-04-12T16:56:33.416Z,26.80
2023-04-12T16:59:01.201Z,26.80
2023-04-12T17:01:30.273Z,26.80
2023-04-12T17:04:00.129Z,26.80
2023-04-12T17:06:30.277Z,26.80
2023-04-12T17:08:58.164Z,26.80
2023-04-12T17:11:26.706Z,26.80
2023-04-12T17:13:54.617Z,26.80
2023-04-12T17:16:22.376Z,26.80
2023-04-12T17:18:51.448Z,26.80
2023-04-12T17:21:20.187Z,26.80
2023-04-12T17:23:49.994Z,26.80
2023-04-12T17:26:19.028Z,26.80
2023-04-12T17:28:46.810Z,26.80
2023-04-12T17:31:14.644Z,26.80
2023-04-12T17:33:42.325Z,26.80
2023-04-12T17:36:12.062Z,26.80
2023-04-12T17:38:39.820Z,26.80
2023-04-12T17:41:09.241Z,26.80
2023-04-12T17:43:37.037Z,26.80
2023-04-12T17:46:05.825Z,26.80
2023-04-12T17:48:33.820Z,26.80
2023-04-12T17:51:03.466Z,26.70
2023-04-12T17:53:33.133Z,26.70
2023-04-12T17:56:00.925Z,26.70
2023-04-12T17:58:29.911Z,26.70
2023-04-12T18:00:57.800Z,26.70
2023-04-12T18:03:26.798Z,26.70
2023-04-12T18:05:55.611Z,26.70
2023-04-12T18:08:23.997Z,26.70
2023-04-12T18:10:53.296Z,26.70
2023-04-12T18:13:20.972Z,26.70
2023-04-12T18:15:48.720Z,26.70
2023-04-12T18:18:16.416Z,26.70
2023-04-12T18:20:44.092Z,26.70
2023-04-12T18:23:11.804Z,26.70
2023-04-12T18:25:39.787Z,26.70
2023-04-12T18:28:09.897Z,26.70
2023-04-12T18:30:37.548Z,26.70
2023-04-12T18:33:05.549Z,26.70
2023-04-12T18:35:33.326Z,26.70
2023-04-12T18:38:01.119Z,26.70
2023-04-12T18:40:28.811Z,26.60
2023-04-12T18:42:56.711Z,26.60
2023-04-12T18:45:26.475Z,26.60
2023-04-12T18:47:54.205Z,26.60
2023-04-12T18:50:21.943Z,26.60
2023-04-12T18:52:49.639Z,26.60
2023-04-12T18:55:18.391Z,26.60
2023-04-12T18:57:48.831Z,26.60
2023-04-12T19:00:18.792Z,26.60
2023-04-12T19:02:47.991Z,26.60
2023-04-12T19:05:23.705Z,26.60
2023-04-12T19:07:52.557Z,26.60
2023-04-12T19:10:20.295Z,26.60
2023-04-12T19:12:48.861Z,26.60
2023-04-12T19:15:16.512Z,26.70
2023-04-12T19:17:44.973Z,26.70
2023-04-12T19:20:14.218Z,26.70
2023-04-12T19:22:42.528Z,26.70
2023-04-12T19:25:11.530Z,26.70
2023-04-12T19:27:39.660Z,26.70
2023-04-12T19:30:11.441Z,26.70
2023-04-12T19:32:39.415Z,26.70
2023-04-12T19:35:09.788Z,26.70
2023-04-12T19:37:38.942Z,26.70
2023-04-12T19:40:09.158Z,26.70
2023-04-12T19:42:37.157Z,26.70
2023-04-12T19:45:05.451Z,26.70
2023-04-12T19:47:34.341Z,26.70
2023-04-12T19:50:04.356Z,26.70
2023-04-12T19:52:32.102Z,26.70
2023-04-12T19:55:02.066Z,26.70
2023-04-12T19:57:30.227Z,26.70
2023-04-12T19:59:57.937Z,26.70
2023-04-12T20:02:25.735Z,26.70
2023-04-12T20:04:53.804Z,26.70
2023-04-12T20:07:21.841Z,26.70
2023-04-12T20:09:49.858Z,26.70
2023-04-12T20:12:19.600Z,26.70
2023-04-12T20:14:47.258Z,26.70
2023-04-12T20:17:15.338Z,26.70
2023-04-12T20:19:43.383Z,26.70
2023-04-12T20:22:11.135Z,26.70
2023-04-12T20:24:39.502Z,26.70
2023-04-12T20:27:07.412Z,26.70
2023-04-12T20:29:37.699Z,26.60
2023-04-12T20:32:06.853Z,26.60
2023-04-12T20:34:34.611Z,26.60
2023-04-12T20:37:02.520Z,26.60
2023-04-12T20:39:31.517Z,26.60
2023-04-12T20:42:01.403Z,26.60
2023-04-12T20:44:29.359Z,26.60
2023-04-12T20:46:58.944Z,26.60
2023-04-12T20:49:27.485Z,26.60
2023-04-12T20:51:56.831Z,26.60
2023-04-12T20:54:25.445Z,26.60
2023-04-12T20:56:54.324Z,26.60
2023-04-12T20:59:22.930Z,26.60
2023-04-12T21:01:51.455Z,26.60
2023-04-12T21:04:22.619Z,26.60
2023-04-12T21:06:55.445Z,26.60
2023-04-12T21:09:24.204Z,26.60
2023-04-12T21:11:52.519Z,26.60
2023-04-12T21:14:20.626Z,26.60
2023-04-12T21:16:49.521Z,26.60
2023-04-12T21:19:18.443Z,26.60
2023-04-12T21:21:47.621Z,26.60
2023-04-12T21:24:15.367Z,26.60
2023-04-12T21:26:43.632Z,26.60
2023-04-12T21:29:11.585Z,26.60
2023-04-12T21:31:41.653Z,26.60
2023-04-12T21:34:10.282Z,26.60
2023-04-12T21:36:38.683Z,26.60
2023-04-12T21:39:07.804Z,26.60
2023-04-12T21:41:37.245Z,26.60
2023-04-12T21:44:05.148Z,26.60
2023-04-12T21:46:32.824Z,26.60
2023-04-12T21:49:00.891Z,26.60
2023-04-12T21:51:28.674Z,26.60
2023-04-12T21:53:56.328Z,26.60
2023-04-12T21:56:25.576Z,26.60
2023-04-12T21:58:53.335Z,26.60
2023-04-12T22:01:21.077Z,26.60
2023-04-12T22:03:48.933Z,26.60
2023-04-12T22:06:16.893Z,26.60
2023-04-12T22:08:45.737Z,26.60
2023-04-12T22:11:13.405Z,26.60
2023-04-12T22:13:42.441Z,26.60
2023-04-12T22:16:13.029Z,26.60
2023-04-12T22:18:41.252Z,26.60
2023-04-12T22:21:09.733Z,26.60
2023-04-12T22:23:38.712Z,26.60
2023-04-12T22:26:07.753Z,26.60
2023-04-12T22:28:38.074Z,26.50
2023-04-12T22:31:08.112Z,26.50
2023-04-12T22:33:37.038Z,26.50
2023-04-12T22:36:05.984Z,26.50
2023-04-12T22:38:35.685Z,26.50
2023-04-12T22:41:03.418Z,26.50
2023-04-12T22:43:33.964Z,26.50
2023-04-12T22:46:05.408Z,26.50
2023-04-12T22:48:35.032Z,26.50
2023-04-12T22:51:03.581Z,26.50
2023-04-12T22:53:33.196Z,26.50
2023-04-12T22:56:00.876Z,26.50
2023-04-12T22:58:28.574Z,26.50
2023-04-12T23:00:56.838Z,26.50
2023-04-12T23:03:24.526Z,26.40
2023-04-12T23:05:53.591Z,26.40
2023-04-12T23:08:22.036Z,26.40
2023-04-12T23:10:50.492Z,26.40
2023-04-12T23:13:18.167Z,26.40
2023-04-12T23:15:45.933Z,26.40
2023-04-12T23:18:13.646Z,26.40
2023-04-12T23:20:44.791Z,26.40
2023-04-12T23:23:13.854Z,26.30
2023-04-12T23:25:42.795Z,26.30
2023-04-12T23:28:13.982Z,26.30
2023-04-12T23:30:44.328Z,26.30
2023-04-12T23:33:12.625Z,26.30
2023-04-12T23:35:41.751Z,26.30
2023-04-12T23:38:10.509Z,26.30
2023-04-12T23:40:39.530Z,26.30
2023-04-12T23:43:08.533Z,26.30
2023-04-12T23:45:36.831Z,26.30
2023-04-12T23:48:05.626Z,26.30
2023-04-12T23:50:33.426Z,26.20
2023-04-12T23:53:01.121Z,26.20
2023-04-12T23:55:28.806Z,26.20
2023-04-12T23:57:57.816Z,26.20
